sensor_id;sensor_type;location;lat;lon;timestamp;P1;durP1;ratioP1;P2;durP2;ratioP2
51714;SDS011;39115;59.332;18.034;2022-08-11T00:00:30;1.67;;;0.68;;
51714;SDS011;39115;59.332;18.034;2022-08-11T00:02:59;1.02;;;0.60;;
51714;SDS011;39115;59.332;18.034;2022-08-11T00:05:29;1.75;;;0.60;;
51714;SDS011;39115;59.332;18.034;2022-08-11T00:07:55;1.45;;;0.60;;
51714;SDS011;39115;59.332;18.034;2022-08-11T00:10:25;0.70;;;0.70;;
51714;SDS011;39115;59.332;18.034;2022-08-11T00:13:00;1.58;;;0.60;;
51714;SDS011;39115;59.332;18.034;2022-08-11T00:15:37;1.75;;;0.60;;
51714;SDS011;39115;59.332;18.034;2022-08-11T00:18:05;2.60;;;0.52;;
51714;SDS011;39115;59.332;18.034;2022-08-11T00:20:32;1.45;;;0.70;;
51714;SDS011;39115;59.332;18.034;2022-08-11T00:23:04;2.38;;;0.63;;
51714;SDS011;39115;59.332;18.034;2022-08-11T00:25:36;1.77;;;0.60;;
51714;SDS011;39115;59.332;18.034;2022-08-11T00:28:32;1.25;;;0.47;;
51714;SDS011;39115;59.332;18.034;2022-08-11T00:33:40;1.30;;;0.73;;
51714;SDS011;39115;59.332;18.034;2022-08-11T00:36:08;2.10;;;0.55;;
51714;SDS011;39115;59.332;18.034;2022-08-11T00:38:37;2.03;;;0.60;;
51714;SDS011;39115;59.332;18.034;2022-08-11T00:49:24;1.70;;;0.52;;
51714;SDS011;39115;59.332;18.034;2022-08-11T00:52:12;3.70;;;0.60;;
51714;SDS011;39115;59.332;18.034;2022-08-11T00:58:01;1.33;;;0.60;;
51714;SDS011;39115;59.332;18.034;2022-08-11T01:06:45;1.20;;;0.68;;
51714;SDS011;39115;59.332;18.034;2022-08-11T01:26:53;2.92;;;0.60;;
51714;SDS011;39115;59.332;18.034;2022-08-11T01:39:17;1.00;;;0.60;;
51714;SDS011;39115;59.332;18.034;2022-08-11T01:45:05;0.93;;;0.50;;
51714;SDS011;39115;59.332;18.034;2022-08-11T01:48:01;2.28;;;0.40;;
51714;SDS011;39115;59.332;18.034;2022-08-11T01:59:25;2.17;;;0.70;;
51714;SDS011;39115;59.332;18.034;2022-08-11T02:04:40;1.40;;;0.50;;
51714;SDS011;39115;59.332;18.034;2022-08-11T02:07:25;0.60;;;0.50;;
51714;SDS011;39115;59.332;18.034;2022-08-11T02:13:11;1.88;;;0.60;;
51714;SDS011;39115;59.332;18.034;2022-08-11T02:15:49;1.90;;;0.90;;
51714;SDS011;39115;59.332;18.034;2022-08-11T02:18:35;1.63;;;0.68;;
51714;SDS011;39115;59.332;18.034;2022-08-11T02:21:29;1.88;;;0.50;;
51714;SDS011;39115;59.332;18.034;2022-08-11T02:24:27;2.28;;;0.80;;
51714;SDS011;39115;59.332;18.034;2022-08-11T02:27:13;0.70;;;0.50;;
51714;SDS011;39115;59.332;18.034;2022-08-11T02:32:36;2.80;;;0.60;;
51714;SDS011;39115;59.332;18.034;2022-08-11T02:35:40;1.75;;;0.50;;
51714;SDS011;39115;59.332;18.034;2022-08-11T02:52:36;0.98;;;0.55;;
51714;SDS011;39115;59.332;18.034;2022-08-11T02:57:42;3.13;;;0.70;;
51714;SDS011;39115;59.332;18.034;2022-08-11T03:00:17;0.60;;;0.60;;
51714;SDS011;39115;59.332;18.034;2022-08-11T03:08:39;1.58;;;0.85;;
51714;SDS011;39115;59.332;18.034;2022-08-11T03:14:21;1.60;;;0.60;;
51714;SDS011;39115;59.332;18.034;2022-08-11T03:20:07;0.95;;;0.50;;
51714;SDS011;39115;59.332;18.034;2022-08-11T03:34:31;1.52;;;0.70;;
51714;SDS011;39115;59.332;18.034;2022-08-11T03:43:10;1.88;;;0.65;;
51714;SDS011;39115;59.332;18.034;2022-08-11T03:51:22;1.95;;;0.63;;
51714;SDS011;39115;59.332;18.034;2022-08-11T03:57:02;1.45;;;0.80;;
51714;SDS011;39115;59.332;18.034;2022-08-11T04:03:33;2.20;;;0.57;;
51714;SDS011;39115;59.332;18.034;2022-08-11T04:08:19;1.90;;;0.80;;
51714;SDS011;39115;59.332;18.034;2022-08-11T04:19:46;2.67;;;0.93;;
51714;SDS011;39115;59.332;18.034;2022-08-11T04:22:26;1.15;;;0.80;;
51714;SDS011;39115;59.332;18.034;2022-08-11T04:25:28;2.17;;;0.90;;
51714;SDS011;39115;59.332;18.034;2022-08-11T04:31:09;2.72;;;1.02;;
51714;SDS011;39115;59.332;18.034;2022-08-11T04:39:42;2.42;;;0.85;;
51714;SDS011;39115;59.332;18.034;2022-08-11T04:46:04;1.20;;;1.08;;
51714;SDS011;39115;59.332;18.034;2022-08-11T04:58:16;1.23;;;0.80;;
51714;SDS011;39115;59.332;18.034;2022-08-11T05:12:55;3.97;;;0.70;;
51714;SDS011;39115;59.332;18.034;2022-08-11T05:15:51;3.20;;;0.50;;
51714;SDS011;39115;59.332;18.034;2022-08-11T05:18:46;1.35;;;0.90;;
51714;SDS011;39115;59.332;18.034;2022-08-11T05:21:34;2.15;;;0.73;;
51714;SDS011;39115;59.332;18.034;2022-08-11T05:24:21;2.28;;;0.70;;
51714;SDS011;39115;59.332;18.034;2022-08-11T05:27:09;1.60;;;0.70;;
51714;SDS011;39115;59.332;18.034;2022-08-11T05:30:00;3.17;;;1.10;;
51714;SDS011;39115;59.332;18.034;2022-08-11T05:32:54;2.40;;;0.70;;
51714;SDS011;39115;59.332;18.034;2022-08-11T05:35:46;2.20;;;0.77;;
51714;SDS011;39115;59.332;18.034;2022-08-11T05:38:23;4.20;;;0.70;;
51714;SDS011;39115;59.332;18.034;2022-08-11T05:41:12;5.43;;;0.90;;
51714;SDS011;39115;59.332;18.034;2022-08-11T05:43:57;4.07;;;0.85;;
51714;SDS011;39115;59.332;18.034;2022-08-11T05:46:45;2.88;;;0.75;;
51714;SDS011;39115;59.332;18.034;2022-08-11T05:49:31;3.40;;;0.60;;
51714;SDS011;39115;59.332;18.034;2022-08-11T05:52:20;1.30;;;0.80;;
51714;SDS011;39115;59.332;18.034;2022-08-11T05:55:09;1.80;;;0.80;;
51714;SDS011;39115;59.332;18.034;2022-08-11T05:58:02;1.55;;;0.70;;
51714;SDS011;39115;59.332;18.034;2022-08-11T06:00:29;1.42;;;0.70;;
51714;SDS011;39115;59.332;18.034;2022-08-11T06:02:59;3.20;;;0.60;;
51714;SDS011;39115;59.332;18.034;2022-08-11T06:05:35;1.15;;;0.60;;
51714;SDS011;39115;59.332;18.034;2022-08-11T06:08:02;1.00;;;0.60;;
51714;SDS011;39115;59.332;18.034;2022-08-11T06:10:33;3.97;;;0.70;;
51714;SDS011;39115;59.332;18.034;2022-08-11T06:13:03;4.55;;;1.08;;
51714;SDS011;39115;59.332;18.034;2022-08-11T06:15:31;2.75;;;0.60;;
51714;SDS011;39115;59.332;18.034;2022-08-11T06:17:59;1.38;;;0.73;;
51714;SDS011;39115;59.332;18.034;2022-08-11T06:20:26;0.60;;;0.50;;
51714;SDS011;39115;59.332;18.034;2022-08-11T06:22:57;3.25;;;1.25;;
51714;SDS011;39115;59.332;18.034;2022-08-11T06:25:30;1.65;;;0.60;;
51714;SDS011;39115;59.332;18.034;2022-08-11T06:27:59;2.28;;;0.70;;
51714;SDS011;39115;59.332;18.034;2022-08-11T06:30:38;6.10;;;0.90;;
51714;SDS011;39115;59.332;18.034;2022-08-11T06:33:16;4.53;;;0.50;;
51714;SDS011;39115;59.332;18.034;2022-08-11T06:41:23;2.13;;;0.57;;
51714;SDS011;39115;59.332;18.034;2022-08-11T06:46:38;3.30;;;0.93;;
51714;SDS011;39115;59.332;18.034;2022-08-11T06:49:11;2.10;;;0.70;;
51714;SDS011;39115;59.332;18.034;2022-08-11T06:52:06;2.25;;;0.65;;
51714;SDS011;39115;59.332;18.034;2022-08-11T06:54:36;2.53;;;0.60;;
51714;SDS011;39115;59.332;18.034;2022-08-11T06:57:11;2.80;;;0.70;;
51714;SDS011;39115;59.332;18.034;2022-08-11T06:59:58;2.55;;;0.63;;
51714;SDS011;39115;59.332;18.034;2022-08-11T07:02:48;2.22;;;0.93;;
51714;SDS011;39115;59.332;18.034;2022-08-11T07:10:56;6.30;;;0.60;;
51714;SDS011;39115;59.332;18.034;2022-08-11T07:13:58;1.35;;;0.60;;
51714;SDS011;39115;59.332;18.034;2022-08-11T07:16:46;3.28;;;0.75;;
51714;SDS011;39115;59.332;18.034;2022-08-11T07:19:14;2.97;;;0.70;;
51714;SDS011;39115;59.332;18.034;2022-08-11T07:22:02;0.73;;;0.57;;
51714;SDS011;39115;59.332;18.034;2022-08-11T07:24:54;3.38;;;0.90;;
51714;SDS011;39115;59.332;18.034;2022-08-11T07:27:45;3.17;;;0.82;;
51714;SDS011;39115;59.332;18.034;2022-08-11T07:30:31;2.03;;;0.65;;
51714;SDS011;39115;59.332;18.034;2022-08-11T07:33:01;3.47;;;0.90;;
51714;SDS011;39115;59.332;18.034;2022-08-11T07:35:33;1.75;;;0.60;;
51714;SDS011;39115;59.332;18.034;2022-08-11T07:38:03;1.45;;;0.50;;
51714;SDS011;39115;59.332;18.034;2022-08-11T07:40:35;1.10;;;0.70;;
51714;SDS011;39115;59.332;18.034;2022-08-11T07:43:03;1.23;;;0.55;;
51714;SDS011;39115;59.332;18.034;2022-08-11T07:45:30;2.80;;;0.60;;
51714;SDS011;39115;59.332;18.034;2022-08-11T07:48:15;1.35;;;0.80;;
51714;SDS011;39115;59.332;18.034;2022-08-11T07:51:00;5.53;;;0.75;;
51714;SDS011;39115;59.332;18.034;2022-08-11T07:53:45;1.23;;;0.60;;
51714;SDS011;39115;59.332;18.034;2022-08-11T07:56:12;3.22;;;0.50;;
51714;SDS011;39115;59.332;18.034;2022-08-11T07:58:40;2.17;;;0.60;;
51714;SDS011;39115;59.332;18.034;2022-08-11T08:01:26;2.65;;;0.63;;
51714;SDS011;39115;59.332;18.034;2022-08-11T08:04:13;2.15;;;0.70;;
51714;SDS011;39115;59.332;18.034;2022-08-11T08:07:00;1.20;;;0.68;;
51714;SDS011;39115;59.332;18.034;2022-08-11T08:09:48;1.13;;;0.60;;
51714;SDS011;39115;59.332;18.034;2022-08-11T08:12:34;2.92;;;0.65;;
51714;SDS011;39115;59.332;18.034;2022-08-11T08:15:18;4.20;;;0.60;;
51714;SDS011;39115;59.332;18.034;2022-08-11T08:18:04;2.05;;;0.70;;
51714;SDS011;39115;59.332;18.034;2022-08-11T08:20:33;1.30;;;0.60;;
51714;SDS011;39115;59.332;18.034;2022-08-11T08:23:02;1.42;;;0.60;;
51714;SDS011;39115;59.332;18.034;2022-08-11T08:25:29;1.58;;;0.50;;
51714;SDS011;39115;59.332;18.034;2022-08-11T08:27:56;3.90;;;0.60;;
51714;SDS011;39115;59.332;18.034;2022-08-11T08:30:26;2.60;;;0.60;;
51714;SDS011;39115;59.332;18.034;2022-08-11T08:33:11;1.30;;;0.50;;
51714;SDS011;39115;59.332;18.034;2022-08-11T08:35:40;0.95;;;0.32;;
51714;SDS011;39115;59.332;18.034;2022-08-11T08:38:06;2.50;;;0.88;;
51714;SDS011;39115;59.332;18.034;2022-08-11T08:40:31;2.53;;;0.50;;
51714;SDS011;39115;59.332;18.034;2022-08-11T08:42:58;4.53;;;0.90;;
51714;SDS011;39115;59.332;18.034;2022-08-11T08:45:27;6.07;;;0.77;;
51714;SDS011;39115;59.332;18.034;2022-08-11T08:47:57;1.23;;;0.43;;
51714;SDS011;39115;59.332;18.034;2022-08-11T08:50:26;3.60;;;0.50;;
51714;SDS011;39115;59.332;18.034;2022-08-11T08:53:16;1.95;;;0.55;;
51714;SDS011;39115;59.332;18.034;2022-08-11T08:55:48;1.00;;;0.40;;
51714;SDS011;39115;59.332;18.034;2022-08-11T08:58:15;1.73;;;0.40;;
51714;SDS011;39115;59.332;18.034;2022-08-11T09:00:44;0.85;;;0.32;;
51714;SDS011;39115;59.332;18.034;2022-08-11T09:03:11;1.27;;;0.40;;
51714;SDS011;39115;59.332;18.034;2022-08-11T09:05:38;1.55;;;0.40;;
51714;SDS011;39115;59.332;18.034;2022-08-11T09:08:04;1.85;;;0.40;;
51714;SDS011;39115;59.332;18.034;2022-08-11T09:10:30;1.60;;;0.50;;
51714;SDS011;39115;59.332;18.034;2022-08-11T09:12:57;2.10;;;0.40;;
51714;SDS011;39115;59.332;18.034;2022-08-11T09:15:24;0.93;;;0.40;;
51714;SDS011;39115;59.332;18.034;2022-08-11T09:17:53;2.90;;;0.40;;
51714;SDS011;39115;59.332;18.034;2022-08-11T09:20:30;3.78;;;0.57;;
51714;SDS011;39115;59.332;18.034;2022-08-11T09:23:05;2.53;;;0.73;;
51714;SDS011;39115;59.332;18.034;2022-08-11T09:25:52;2.22;;;0.60;;
51714;SDS011;39115;59.332;18.034;2022-08-11T09:28:40;1.08;;;0.40;;
51714;SDS011;39115;59.332;18.034;2022-08-11T09:31:10;3.67;;;0.60;;
51714;SDS011;39115;59.332;18.034;2022-08-11T09:33:37;1.08;;;0.45;;
51714;SDS011;39115;59.332;18.034;2022-08-11T09:36:04;1.08;;;0.40;;
51714;SDS011;39115;59.332;18.034;2022-08-11T09:41:34;1.70;;;0.40;;
51714;SDS011;39115;59.332;18.034;2022-08-11T09:44:01;5.55;;;0.63;;
51714;SDS011;39115;59.332;18.034;2022-08-11T09:46:45;1.73;;;0.43;;
51714;SDS011;39115;59.332;18.034;2022-08-11T09:49:12;1.60;;;0.40;;
51714;SDS011;39115;59.332;18.034;2022-08-11T09:51:38;2.45;;;0.40;;
51714;SDS011;39115;59.332;18.034;2022-08-11T09:54:05;3.13;;;0.55;;
51714;SDS011;39115;59.332;18.034;2022-08-11T09:56:31;1.35;;;0.40;;
51714;SDS011;39115;59.332;18.034;2022-08-11T09:59:20;2.73;;;0.50;;
51714;SDS011;39115;59.332;18.034;2022-08-11T10:01:48;1.65;;;0.40;;
51714;SDS011;39115;59.332;18.034;2022-08-11T10:04:22;0.65;;;0.30;;
51714;SDS011;39115;59.332;18.034;2022-08-11T10:06:55;2.50;;;0.40;;
51714;SDS011;39115;59.332;18.034;2022-08-11T10:14:57;2.88;;;0.60;;
51714;SDS011;39115;59.332;18.034;2022-08-11T10:17:47;1.90;;;0.30;;
51714;SDS011;39115;59.332;18.034;2022-08-11T10:20:35;4.88;;;0.50;;
51714;SDS011;39115;59.332;18.034;2022-08-11T10:23:02;2.00;;;0.50;;
51714;SDS011;39115;59.332;18.034;2022-08-11T10:25:47;1.70;;;0.47;;
51714;SDS011;39115;59.332;18.034;2022-08-11T10:28:32;1.90;;;0.30;;
51714;SDS011;39115;59.332;18.034;2022-08-11T10:30:59;1.02;;;0.35;;
51714;SDS011;39115;59.332;18.034;2022-08-11T10:33:46;0.57;;;0.40;;
51714;SDS011;39115;59.332;18.034;2022-08-11T10:36:25;1.05;;;0.30;;
51714;SDS011;39115;59.332;18.034;2022-08-11T10:38:56;1.58;;;0.40;;
51714;SDS011;39115;59.332;18.034;2022-08-11T10:41:24;1.45;;;0.30;;
51714;SDS011;39115;59.332;18.034;2022-08-11T10:44:10;0.75;;;0.40;;
51714;SDS011;39115;59.332;18.034;2022-08-11T10:46:37;2.63;;;0.40;;
51714;SDS011;39115;59.332;18.034;2022-08-11T10:49:21;1.88;;;0.40;;
51714;SDS011;39115;59.332;18.034;2022-08-11T10:51:49;3.15;;;0.60;;
51714;SDS011;39115;59.332;18.034;2022-08-11T10:54:34;2.05;;;0.40;;
51714;SDS011;39115;59.332;18.034;2022-08-11T10:57:19;2.90;;;0.32;;
51714;SDS011;39115;59.332;18.034;2022-08-11T11:00:04;2.35;;;0.68;;
51714;SDS011;39115;59.332;18.034;2022-08-11T11:02:31;1.52;;;0.40;;
51714;SDS011;39115;59.332;18.034;2022-08-11T11:05:21;0.95;;;0.30;;
51714;SDS011;39115;59.332;18.034;2022-08-11T11:08:00;1.67;;;0.40;;
51714;SDS011;39115;59.332;18.034;2022-08-11T11:10:58;2.95;;;0.40;;
51714;SDS011;39115;59.332;18.034;2022-08-11T11:13:25;2.40;;;0.47;;
51714;SDS011;39115;59.332;18.034;2022-08-11T11:16:10;0.97;;;0.30;;
51714;SDS011;39115;59.332;18.034;2022-08-11T11:18:56;0.75;;;0.30;;
51714;SDS011;39115;59.332;18.034;2022-08-11T11:21:28;1.58;;;0.30;;
51714;SDS011;39115;59.332;18.034;2022-08-11T11:27:17;1.45;;;0.30;;
51714;SDS011;39115;59.332;18.034;2022-08-11T11:30:05;1.23;;;0.40;;
51714;SDS011;39115;59.332;18.034;2022-08-11T11:40:36;2.25;;;0.40;;
51714;SDS011;39115;59.332;18.034;2022-08-11T11:43:04;1.17;;;0.40;;
51714;SDS011;39115;59.332;18.034;2022-08-11T11:45:29;2.33;;;0.43;;
51714;SDS011;39115;59.332;18.034;2022-08-11T11:47:56;1.50;;;0.40;;
51714;SDS011;39115;59.332;18.034;2022-08-11T11:50:24;0.93;;;0.30;;
51714;SDS011;39115;59.332;18.034;2022-08-11T11:52:51;2.75;;;0.20;;
51714;SDS011;39115;59.332;18.034;2022-08-11T11:55:19;2.42;;;0.25;;
51714;SDS011;39115;59.332;18.034;2022-08-11T11:57:47;1.88;;;0.70;;
51714;SDS011;39115;59.332;18.034;2022-08-11T12:00:31;0.60;;;0.20;;
51714;SDS011;39115;59.332;18.034;2022-08-11T12:03:16;1.40;;;0.30;;
51714;SDS011;39115;59.332;18.034;2022-08-11T12:05:43;1.45;;;0.40;;
51714;SDS011;39115;59.332;18.034;2022-08-11T12:08:11;2.05;;;0.57;;
51714;SDS011;39115;59.332;18.034;2022-08-11T12:10:49;0.70;;;0.30;;
51714;SDS011;39115;59.332;18.034;2022-08-11T12:13:42;1.00;;;0.40;;
51714;SDS011;39115;59.332;18.034;2022-08-11T12:16:10;0.93;;;0.28;;
51714;SDS011;39115;59.332;18.034;2022-08-11T12:18:37;0.77;;;0.20;;
51714;SDS011;39115;59.332;18.034;2022-08-11T12:21:06;1.30;;;0.30;;
51714;SDS011;39115;59.332;18.034;2022-08-11T12:23:36;1.23;;;0.30;;
51714;SDS011;39115;59.332;18.034;2022-08-11T12:26:21;2.05;;;0.30;;
51714;SDS011;39115;59.332;18.034;2022-08-11T12:29:23;1.08;;;0.22;;
51714;SDS011;39115;59.332;18.034;2022-08-11T12:31:51;1.40;;;0.30;;
51714;SDS011;39115;59.332;18.034;2022-08-11T12:34:22;0.55;;;0.20;;
51714;SDS011;39115;59.332;18.034;2022-08-11T12:36:58;2.15;;;0.30;;
51714;SDS011;39115;59.332;18.034;2022-08-11T12:39:34;1.27;;;0.30;;
51714;SDS011;39115;59.332;18.034;2022-08-11T12:42:20;1.33;;;0.70;;
51714;SDS011;39115;59.332;18.034;2022-08-11T12:45:14;1.33;;;0.30;;
51714;SDS011;39115;59.332;18.034;2022-08-11T12:47:52;4.63;;;0.73;;
51714;SDS011;39115;59.332;18.034;2022-08-11T12:50:48;1.83;;;0.22;;
51714;SDS011;39115;59.332;18.034;2022-08-11T12:54:01;1.30;;;0.30;;
51714;SDS011;39115;59.332;18.034;2022-08-11T12:56:45;0.80;;;0.30;;
51714;SDS011;39115;59.332;18.034;2022-08-11T12:59:33;1.65;;;0.20;;
51714;SDS011;39115;59.332;18.034;2022-08-11T13:02:18;0.98;;;0.40;;
51714;SDS011;39115;59.332;18.034;2022-08-11T13:05:06;1.20;;;0.22;;
51714;SDS011;39115;59.332;18.034;2022-08-11T13:07:33;0.52;;;0.20;;
51714;SDS011;39115;59.332;18.034;2022-08-11T13:10:02;0.82;;;0.22;;
51714;SDS011;39115;59.332;18.034;2022-08-11T13:12:30;0.68;;;0.20;;
51714;SDS011;39115;59.332;18.034;2022-08-11T13:17:47;0.32;;;0.28;;
51714;SDS011;39115;59.332;18.034;2022-08-11T13:20:18;0.70;;;0.20;;
51714;SDS011;39115;59.332;18.034;2022-08-11T13:22:49;1.48;;;0.30;;
51714;SDS011;39115;59.332;18.034;2022-08-11T13:25:17;2.10;;;0.35;;
51714;SDS011;39115;59.332;18.034;2022-08-11T13:27:45;0.38;;;0.20;;
51714;SDS011;39115;59.332;18.034;2022-08-11T13:30:15;1.83;;;0.20;;
51714;SDS011;39115;59.332;18.034;2022-08-11T13:33:00;0.47;;;0.20;;
51714;SDS011;39115;59.332;18.034;2022-08-11T13:35:27;1.25;;;0.20;;
51714;SDS011;39115;59.332;18.034;2022-08-11T13:37:55;0.50;;;0.20;;
51714;SDS011;39115;59.332;18.034;2022-08-11T13:40:22;2.83;;;0.30;;
51714;SDS011;39115;59.332;18.034;2022-08-11T13:42:50;1.85;;;0.20;;
51714;SDS011;39115;59.332;18.034;2022-08-11T13:45:16;1.15;;;0.20;;
51714;SDS011;39115;59.332;18.034;2022-08-11T13:47:43;0.88;;;0.20;;
51714;SDS011;39115;59.332;18.034;2022-08-11T13:50:09;0.80;;;0.20;;
51714;SDS011;39115;59.332;18.034;2022-08-11T13:52:37;0.38;;;0.20;;
51714;SDS011;39115;59.332;18.034;2022-08-11T13:55:03;1.65;;;0.20;;
51714;SDS011;39115;59.332;18.034;2022-08-11T13:57:31;0.52;;;0.20;;
51714;SDS011;39115;59.332;18.034;2022-08-11T13:59:58;0.47;;;0.20;;
51714;SDS011;39115;59.332;18.034;2022-08-11T14:02:34;0.57;;;0.20;;
51714;SDS011;39115;59.332;18.034;2022-08-11T14:05:04;0.60;;;0.28;;
51714;SDS011;39115;59.332;18.034;2022-08-11T14:07:35;1.48;;;0.30;;
51714;SDS011;39115;59.332;18.034;2022-08-11T14:10:03;1.73;;;0.30;;
51714;SDS011;39115;59.332;18.034;2022-08-11T14:12:32;1.65;;;0.30;;
51714;SDS011;39115;59.332;18.034;2022-08-11T14:15:19;1.65;;;0.40;;
51714;SDS011;39115;59.332;18.034;2022-08-11T14:17:56;3.25;;;0.20;;
51714;SDS011;39115;59.332;18.034;2022-08-11T14:20:30;3.40;;;0.30;;
51714;SDS011;39115;59.332;18.034;2022-08-11T14:23:18;0.80;;;0.28;;
51714;SDS011;39115;59.332;18.034;2022-08-11T14:25:50;1.05;;;0.30;;
51714;SDS011;39115;59.332;18.034;2022-08-11T14:28:34;1.58;;;0.30;;
51714;SDS011;39115;59.332;18.034;2022-08-11T14:31:00;2.92;;;0.20;;
51714;SDS011;39115;59.332;18.034;2022-08-11T14:33:27;0.50;;;0.20;;
51714;SDS011;39115;59.332;18.034;2022-08-11T14:35:56;0.43;;;0.30;;
51714;SDS011;39115;59.332;18.034;2022-08-11T14:38:21;0.93;;;0.20;;
51714;SDS011;39115;59.332;18.034;2022-08-11T14:40:47;1.13;;;0.20;;
51714;SDS011;39115;59.332;18.034;2022-08-11T14:43:32;2.80;;;0.20;;
51714;SDS011;39115;59.332;18.034;2022-08-11T14:46:16;1.13;;;0.30;;
51714;SDS011;39115;59.332;18.034;2022-08-11T14:49:01;0.40;;;0.28;;
51714;SDS011;39115;59.332;18.034;2022-08-11T14:51:27;1.77;;;0.30;;
51714;SDS011;39115;59.332;18.034;2022-08-11T14:53:52;1.10;;;0.30;;
51714;SDS011;39115;59.332;18.034;2022-08-11T14:56:38;1.40;;;0.20;;
51714;SDS011;39115;59.332;18.034;2022-08-11T14:59:05;0.82;;;0.20;;
51714;SDS011;39115;59.332;18.034;2022-08-11T15:01:31;1.02;;;0.20;;
51714;SDS011;39115;59.332;18.034;2022-08-11T15:04:23;2.15;;;0.30;;
51714;SDS011;39115;59.332;18.034;2022-08-11T15:06:49;1.52;;;0.40;;
51714;SDS011;39115;59.332;18.034;2022-08-11T15:09:15;0.98;;;0.28;;
51714;SDS011;39115;59.332;18.034;2022-08-11T15:11:42;2.47;;;0.30;;
51714;SDS011;39115;59.332;18.034;2022-08-11T15:14:26;0.40;;;0.20;;
51714;SDS011;39115;59.332;18.034;2022-08-11T15:17:10;2.05;;;0.20;;
51714;SDS011;39115;59.332;18.034;2022-08-11T15:19:38;0.82;;;0.20;;
51714;SDS011;39115;59.332;18.034;2022-08-11T15:22:28;1.20;;;0.30;;
51714;SDS011;39115;59.332;18.034;2022-08-11T15:25:12;1.25;;;0.20;;
51714;SDS011;39115;59.332;18.034;2022-08-11T15:27:39;1.20;;;0.10;;
51714;SDS011;39115;59.332;18.034;2022-08-11T15:30:25;0.80;;;0.30;;
51714;SDS011;39115;59.332;18.034;2022-08-11T15:33:11;2.60;;;0.20;;
51714;SDS011;39115;59.332;18.034;2022-08-11T15:35:59;0.70;;;0.20;;
51714;SDS011;39115;59.332;18.034;2022-08-11T15:38:50;1.40;;;0.20;;
51714;SDS011;39115;59.332;18.034;2022-08-11T15:41:22;1.65;;;0.20;;
51714;SDS011;39115;59.332;18.034;2022-08-11T15:44:12;0.57;;;0.35;;
51714;SDS011;39115;59.332;18.034;2022-08-11T15:47:00;0.28;;;0.10;;
51714;SDS011;39115;59.332;18.034;2022-08-11T15:49:33;1.58;;;0.20;;
51714;SDS011;39115;59.332;18.034;2022-08-11T15:52:08;1.38;;;0.20;;
51714;SDS011;39115;59.332;18.034;2022-08-11T15:54:40;1.85;;;0.30;;
51714;SDS011;39115;59.332;18.034;2022-08-11T15:57:14;0.57;;;0.20;;
51714;SDS011;39115;59.332;18.034;2022-08-11T16:00:01;1.15;;;0.20;;
51714;SDS011;39115;59.332;18.034;2022-08-11T16:02:47;1.38;;;0.20;;
51714;SDS011;39115;59.332;18.034;2022-08-11T16:05:19;1.10;;;0.30;;
51714;SDS011;39115;59.332;18.034;2022-08-11T16:07:45;0.50;;;0.30;;
51714;SDS011;39115;59.332;18.034;2022-08-11T16:10:14;0.73;;;0.20;;
51714;SDS011;39115;59.332;18.034;2022-08-11T16:15:48;0.45;;;0.20;;
51714;SDS011;39115;59.332;18.034;2022-08-11T16:18:35;0.57;;;0.30;;
51714;SDS011;39115;59.332;18.034;2022-08-11T16:21:06;1.63;;;0.20;;
51714;SDS011;39115;59.332;18.034;2022-08-11T16:23:35;0.98;;;0.20;;
51714;SDS011;39115;59.332;18.034;2022-08-11T16:26:04;0.40;;;0.10;;
51714;SDS011;39115;59.332;18.034;2022-08-11T16:28:32;0.80;;;0.15;;
51714;SDS011;39115;59.332;18.034;2022-08-11T16:31:00;0.40;;;0.20;;
51714;SDS011;39115;59.332;18.034;2022-08-11T16:33:26;0.73;;;0.20;;
51714;SDS011;39115;59.332;18.034;2022-08-11T16:35:52;0.47;;;0.22;;
51714;SDS011;39115;59.332;18.034;2022-08-11T16:38:37;1.02;;;0.17;;
51714;SDS011;39115;59.332;18.034;2022-08-11T16:41:11;0.63;;;0.22;;
51714;SDS011;39115;59.332;18.034;2022-08-11T16:43:40;0.70;;;0.20;;
51714;SDS011;39115;59.332;18.034;2022-08-11T16:46:30;0.45;;;0.25;;
51714;SDS011;39115;59.332;18.034;2022-08-11T16:49:19;0.93;;;0.28;;
51714;SDS011;39115;59.332;18.034;2022-08-11T16:51:48;0.80;;;0.20;;
51714;SDS011;39115;59.332;18.034;2022-08-11T16:54:14;4.00;;;0.30;;
51714;SDS011;39115;59.332;18.034;2022-08-11T16:56:46;2.15;;;0.40;;
51714;SDS011;39115;59.332;18.034;2022-08-11T16:59:16;3.35;;;0.20;;
51714;SDS011;39115;59.332;18.034;2022-08-11T17:07:24;1.42;;;0.35;;
51714;SDS011;39115;59.332;18.034;2022-08-11T17:10:23;1.90;;;0.30;;
51714;SDS011;39115;59.332;18.034;2022-08-11T17:13:10;0.32;;;0.20;;
51714;SDS011;39115;59.332;18.034;2022-08-11T17:15:47;2.15;;;0.20;;
51714;SDS011;39115;59.332;18.034;2022-08-11T17:18:36;0.50;;;0.20;;
51714;SDS011;39115;59.332;18.034;2022-08-11T17:23:45;0.70;;;0.30;;
51714;SDS011;39115;59.332;18.034;2022-08-11T17:26:25;1.73;;;0.20;;
51714;SDS011;39115;59.332;18.034;2022-08-11T17:29:13;0.35;;;0.13;;
51714;SDS011;39115;59.332;18.034;2022-08-11T17:31:41;1.20;;;0.20;;
51714;SDS011;39115;59.332;18.034;2022-08-11T17:34:25;3.15;;;0.20;;
51714;SDS011;39115;59.332;18.034;2022-08-11T17:37:10;1.27;;;0.30;;
51714;SDS011;39115;59.332;18.034;2022-08-11T17:39:36;2.30;;;0.30;;
51714;SDS011;39115;59.332;18.034;2022-08-11T17:42:02;1.40;;;0.40;;
51714;SDS011;39115;59.332;18.034;2022-08-11T17:47:32;0.80;;;0.20;;
51714;SDS011;39115;59.332;18.034;2022-08-11T17:50:16;2.67;;;0.30;;
51714;SDS011;39115;59.332;18.034;2022-08-11T17:52:44;1.30;;;0.30;;
51714;SDS011;39115;59.332;18.034;2022-08-11T17:55:30;1.63;;;0.22;;
51714;SDS011;39115;59.332;18.034;2022-08-11T17:58:16;0.70;;;0.30;;
51714;SDS011;39115;59.332;18.034;2022-08-11T18:03:27;1.52;;;0.20;;
51714;SDS011;39115;59.332;18.034;2022-08-11T18:05:53;2.03;;;0.20;;
51714;SDS011;39115;59.332;18.034;2022-08-11T18:08:20;1.88;;;0.65;;
51714;SDS011;39115;59.332;18.034;2022-08-11T18:13:51;1.95;;;0.55;;
51714;SDS011;39115;59.332;18.034;2022-08-11T18:16:36;0.85;;;0.40;;
51714;SDS011;39115;59.332;18.034;2022-08-11T18:19:20;2.95;;;0.40;;
51714;SDS011;39115;59.332;18.034;2022-08-11T18:22:05;1.60;;;0.20;;
51714;SDS011;39115;59.332;18.034;2022-08-11T18:25:00;0.85;;;0.20;;
51714;SDS011;39115;59.332;18.034;2022-08-11T18:27:48;0.47;;;0.30;;
51714;SDS011;39115;59.332;18.034;2022-08-11T18:30:37;2.15;;;0.30;;
51714;SDS011;39115;59.332;18.034;2022-08-11T18:33:25;3.53;;;0.30;;
51714;SDS011;39115;59.332;18.034;2022-08-11T18:36:14;1.25;;;0.20;;
51714;SDS011;39115;59.332;18.034;2022-08-11T18:39:02;1.45;;;0.32;;
51714;SDS011;39115;59.332;18.034;2022-08-11T18:41:51;0.80;;;0.20;;
51714;SDS011;39115;59.332;18.034;2022-08-11T18:44:36;0.75;;;0.30;;
51714;SDS011;39115;59.332;18.034;2022-08-11T18:47:21;1.25;;;0.40;;
51714;SDS011;39115;59.332;18.034;2022-08-11T18:50:09;0.65;;;0.30;;
51714;SDS011;39115;59.332;18.034;2022-08-11T18:52:55;1.83;;;0.30;;
51714;SDS011;39115;59.332;18.034;2022-08-11T18:58:28;1.42;;;0.38;;
51714;SDS011;39115;59.332;18.034;2022-08-11T19:01:14;4.30;;;0.50;;
51714;SDS011;39115;59.332;18.034;2022-08-11T19:04:00;0.93;;;0.30;;
51714;SDS011;39115;59.332;18.034;2022-08-11T19:06:49;0.90;;;0.40;;
51714;SDS011;39115;59.332;18.034;2022-08-11T19:09:35;1.05;;;0.47;;
51714;SDS011;39115;59.332;18.034;2022-08-11T19:12:23;1.40;;;0.40;;
51714;SDS011;39115;59.332;18.034;2022-08-11T19:15:08;1.33;;;0.52;;
51714;SDS011;39115;59.332;18.034;2022-08-11T19:17:53;2.72;;;0.90;;
51714;SDS011;39115;59.332;18.034;2022-08-11T19:20:38;2.93;;;0.70;;
51714;SDS011;39115;59.332;18.034;2022-08-11T19:23:27;1.00;;;0.40;;